Time;durP1;ratioP1;P1;durP2;ratioP2;P2;SDS_P1;SDS_P2;PMS_P1;PMS_P2;Temp;Humidity;BMP_temperature;BMP_pressure;BME280_temperature;BME280_humidity;BME280_pressure;Samples;Min_cycle;Max_cycle;Signal;HPM_P1;HPM_P2
2024/04/05 00:01:34;;;;;;;4.68;1.60;;;;;;;11.80;50.45;100744.56;4996923;28;20492;-77
2024/04/05 00:04:04;;;;;;;3.63;1.52;;;;;;;11.78;50.64;100744.72;5002742;28;20045;-78
2024/04/05 00:06:30;;;;;;;5.10;1.83;;;;;;;11.79;50.47;100740.97;5016050;28;20037;-77
2024/04/05 00:08:57;;;;;;;6.15;1.80;;;;;;;11.79;50.60;100737.34;5002341;28;20053;-78
2024/04/05 00:11:23;;;;;;;4.07;1.80;;;;;;;11.79;50.27;100729.13;4996228;28;20040;-78
2024/04/05 00:13:50;;;;;;;6.43;1.95;;;;;;;11.80;50.62;100733.59;5006611;28;20076;-77
2024/04/05 00:16:16;;;;;;;3.38;1.58;;;;;;;11.79;50.51;100729.13;5012656;28;20045;-78
2024/04/05 00:18:44;;;;;;;4.22;1.40;;;;;;;11.80;50.77;100725.38;5012634;28;20096;-77
2024/04/05 00:21:11;;;;;;;5.50;1.98;;;;;;;11.78;50.70;100722.78;5015694;28;20037;-77
2024/04/05 00:23:38;;;;;;;3.88;1.60;;;;;;;11.79;50.74;100729.13;5000826;28;20135;-77
2024/04/05 00:26:05;;;;;;;4.72;1.73;;;;;;;11.80;50.69;100730.84;5014657;28;20044;-77
2024/04/05 00:28:33;;;;;;;5.53;1.67;;;;;;;11.79;51.00;100737.34;5021991;28;20112;-78
2024/04/05 00:30:59;;;;;;;5.53;1.70;;;;;;;11.80;51.16;100744.56;5000478;28;20071;-78
2024/04/05 00:33:26;;;;;;;4.30;1.95;;;;;;;11.80;51.03;100739.09;5008284;28;20045;-77
2024/04/05 00:35:55;;;;;;;4.90;1.50;;;;;;;11.82;50.72;100728.81;5011001;28;20041;-78
2024/04/05 00:38:24;;;;;;;4.10;1.70;;;;;;;11.82;50.54;100726.06;5016322;28;20079;-78
2024/04/05 00:40:50;;;;;;;3.10;1.40;;;;;;;11.79;50.87;100715.41;5023543;28;20095;-78
2024/04/05 00:43:17;;;;;;;7.57;2.25;;;;;;;11.80;50.90;100722.63;5013316;28;20092;-77
2024/04/05 00:45:46;;;;;;;3.97;2.00;;;;;;;11.82;50.71;100726.94;5018950;28;20521;-78
2024/04/05 00:48:13;;;;;;;4.15;1.60;;;;;;;11.80;50.47;100723.47;5016894;28;20107;-78
2024/04/05 00:50:39;;;;;;;2.78;1.52;;;;;;;11.80;50.92;100725.38;4999906;28;20053;-77
2024/04/05 00:53:11;;;;;;;3.80;1.65;;;;;;;11.82;50.98;100724.19;5015526;28;20390;-78
2024/04/05 00:55:38;;;;;;;4.93;1.50;;;;;;;11.79;50.89;100715.41;4994601;28;20053;-77
2024/04/05 00:58:05;;;;;;;4.80;1.55;;;;;;;11.81;50.50;100716.09;4999972;28;20103;-77
2024/04/05 01:00:32;;;;;;;3.60;1.40;;;;;;;11.80;50.97;100715.25;5000457;28;20585;-77
2024/04/05 01:02:59;;;;;;;4.25;2.00;;;;;;;11.81;50.87;100716.09;4996616;28;20038;-78
2024/04/05 01:05:25;;;;;;;6.32;1.90;;;;;;;11.79;50.70;100708.06;5003641;28;20489;-78
2024/04/05 01:07:53;;;;;;;4.10;2.22;;;;;;;11.80;50.87;100707.00;5013727;28;20109;-78
2024/04/05 01:10:21;;;;;;;5.50;1.70;;;;;;;11.80;50.69;100704.28;4997026;28;20509;-77
2024/04/05 01:12:58;;;;;;;5.20;1.83;;;;;;;11.81;50.74;100699.66;5015286;28;20485;-77
2024/04/05 01:15:24;;;;;;;4.07;1.65;;;;;;;11.78;50.96;100706.31;5003755;28;20632;-77
2024/04/05 01:17:51;;;;;;;5.47;2.08;;;;;;;11.79;50.62;100696.22;5015241;28;20049;-77
2024/04/05 01:20:18;;;;;;;3.60;1.58;;;;;;;11.78;51.08;100692.63;5018980;28;21571;-77
2024/04/05 01:22:50;;;;;;;5.78;1.75;;;;;;;11.79;50.89;100674.28;5014896;28;20644;-77
2024/04/05 01:25:18;;;;;;;4.13;1.73;;;;;;;11.77;50.87;100682.66;5020923;28;20048;-78
2024/04/05 01:27:45;;;;;;;5.10;2.10;;;;;;;11.77;50.74;100676.31;5009847;28;20041;-77
2024/04/05 01:30:11;;;;;;;4.20;1.95;;;;;;;11.77;51.35;100684.53;5012906;28;20033;-77
2024/04/05 01:32:38;;;;;;;3.97;1.70;;;;;;;11.78;51.11;100702.72;5000496;28;20050;-79
2024/04/05 01:35:05;;;;;;;6.30;2.50;;;;;;;11.77;51.08;100696.34;5000836;28;20433;-78
2024/04/05 01:37:32;;;;;;;5.22;1.80;;;;;;;11.76;51.22;100702.84;5005662;28;20033;-77
2024/04/05 01:39:58;;;;;;;5.28;1.90;;;;;;;11.74;51.46;100703.00;5000616;28;20038;-78
2024/04/05 01:42:26;;;;;;;4.35;1.77;;;;;;;11.76;51.48;100702.84;5017970;28;20040;-77
2024/04/05 01:44:52;;;;;;;3.92;1.60;;;;;;;11.76;51.40;100707.47;4997289;28;20057;-77
2024/04/05 01:47:19;;;;;;;4.07;1.55;;;;;;;11.74;51.16;100704.88;5011716;28;20049;-78
2024/04/05 01:49:45;;;;;;;5.15;2.20;;;;;;;11.76;51.51;100710.22;5019145;28;20038;-78
2024/04/05 01:52:12;;;;;;;4.43;1.80;;;;;;;11.76;51.15;100711.06;5004969;28;20053;-78
2024/04/05 01:54:38;;;;;;;5.18;1.90;;;;;;;11.77;51.09;100714.69;5005003;28;20045;-78
2024/04/05 01:57:05;;;;;;;5.82;2.13;;;;;;;11.77;51.59;100715.56;5020926;28;20075;-78
2024/04/05 01:59:32;;;;;;;4.53;1.95;;;;;;;11.79;51.40;100712.66;4997721;28;20037;-77
2024/04/05 02:01:59;;;;;;;4.40;1.95;;;;;;;11.77;51.21;100712.81;5002483;28;20536;-77
2024/04/05 02:04:25;;;;;;;5.00;1.75;;;;;;;11.77;51.11;100704.59;5018031;28;20041;-77
2024/04/05 02:06:52;;;;;;;4.85;1.65;;;;;;;11.77;51.09;100699.09;5008985;28;20068;-78
2024/04/05 02:09:18;;;;;;;4.40;2.03;;;;;;;11.77;51.56;100699.09;5022767;28;20044;-78
2024/04/05 02:11:45;;;;;;;4.63;1.90;;;;;;;11.78;51.55;100691.75;5015220;28;20046;-78
2024/04/05 02:14:11;;;;;;;4.82;1.83;;;;;;;11.77;51.24;100685.41;5020917;28;20166;-77
2024/04/05 02:16:39;;;;;;;4.53;1.85;;;;;;;11.80;51.27;100684.25;5018477;28;20041;-78
2024/04/05 02:19:05;;;;;;;5.07;2.08;;;;;;;11.78;51.62;100675.28;5014216;28;20041;-78
2024/04/05 02:21:32;;;;;;;4.93;2.28;;;;;;;11.78;51.24;100678.03;5008959;28;20038;-77
2024/04/05 02:23:58;;;;;;;4.60;1.95;;;;;;;11.77;51.70;100687.28;5012130;28;20060;-78
2024/04/05 02:26:25;;;;;;;6.35;2.00;;;;;;;11.77;51.79;100690.88;5018933;28;20041;-78
2024/04/05 02:28:51;;;;;;;5.68;2.38;;;;;;;11.76;51.31;100689.16;5001232;28;20419;-78
2024/04/05 02:31:18;;;;;;;6.38;2.03;;;;;;;11.76;51.79;100697.38;5003967;28;20103;-77
2024/04/05 02:33:45;;;;;;;4.25;1.70;;;;;;;11.79;51.30;100698.97;5015049;28;20042;-77
2024/04/05 02:36:12;;;;;;;5.93;1.80;;;;;;;11.76;51.32;100693.75;5014240;28;20049;-78
2024/04/05 02:38:38;;;;;;;4.47;1.73;;;;;;;11.77;51.19;100704.59;5015773;28;20046;-78
2024/04/05 02:41:07;;;;;;;3.92;1.73;;;;;;;11.77;51.84;100701.84;5021462;28;20041;-78
2024/04/05 02:43:33;;;;;;;5.25;2.05;;;;;;;11.78;51.91;100705.44;5002110;28;20045;-77
2024/04/05 02:46:00;;;;;;;5.30;2.03;;;;;;;11.77;51.84;100703.72;5021448;28;20121;-77
2024/04/05 02:48:26;;;;;;;8.05;2.00;;;;;;;11.76;51.65;100711.06;5028476;28;20040;-78
2024/04/05 02:50:54;;;;;;;6.50;2.38;;;;;;;11.78;51.83;100711.81;5004855;28;20049;-77
2024/04/05 02:53:20;;;;;;;6.88;1.80;;;;;;;11.77;51.86;100710.06;5015039;28;20519;-78
2024/04/05 02:55:48;;;;;;;5.57;1.90;;;;;;;11.76;51.97;100712.94;5019310;28;20076;-78
2024/04/05 02:58:13;;;;;;;6.53;1.85;;;;;;;11.77;51.66;100709.19;5013678;28;20046;-77
2024/04/05 03:00:42;;;;;;;5.32;1.80;;;;;;;11.76;51.89;100721.19;5016631;28;20065;-79
2024/04/05 03:03:08;;;;;;;5.53;1.80;;;;;;;11.76;51.52;100712.94;5004575;28;20049;-77
2024/04/05 03:05:35;;;;;;;3.60;1.55;;;;;;;11.75;51.85;100709.34;5026324;28;20607;-78
2024/04/05 03:08:04;;;;;;;5.70;2.22;;;;;;;11.78;52.05;100713.69;5017882;28;20048;-78
2024/04/05 03:10:33;;;;;;;4.78;1.98;;;;;;;11.76;51.89;100722.03;5013290;28;20049;-78
2024/04/05 03:12:59;;;;;;;5.88;2.35;;;;;;;11.76;51.63;100723.91;5018365;28;20033;-77
2024/04/05 03:15:26;;;;;;;4.68;2.00;;;;;;;11.76;52.07;100727.53;5007660;28;20045;-77
2024/04/05 03:17:52;;;;;;;5.03;2.10;;;;;;;11.76;51.65;100718.44;5012545;28;20057;-77
2024/04/05 03:20:19;;;;;;;5.40;1.77;;;;;;;11.75;52.25;100714.81;5002192;28;20064;-77
2024/04/05 03:22:45;;;;;;;5.72;2.15;;;;;;;11.75;52.20;100714.81;5026095;28;20036;-78
2024/04/05 03:25:13;;;;;;;4.68;2.00;;;;;;;11.76;51.71;100712.94;5015886;28;20041;-78
2024/04/05 03:27:39;;;;;;;5.30;2.22;;;;;;;11.74;52.24;100713.09;5003568;28;20078;-78
2024/04/05 03:30:07;;;;;;;6.78;2.42;;;;;;;11.74;51.91;100718.56;5013090;28;20045;-78
2024/04/05 03:32:33;;;;;;;4.65;2.00;;;;;;;11.71;52.26;100714.28;5012563;28;20082;-78
2024/04/05 03:35:02;;;;;;;4.93;1.95;;;;;;;11.69;51.69;100713.53;5016928;28;20597;-77
2024/04/05 03:37:29;;;;;;;5.07;2.05;;;;;;;11.68;51.76;100717.28;5021934;28;20056;-77
2024/04/05 03:39:56;;;;;;;6.57;2.10;;;;;;;11.68;51.76;100724.66;4996368;28;20045;-78
2024/04/05 03:42:25;;;;;;;5.80;2.40;;;;;;;11.67;51.76;100712.81;5009660;28;20033;-77
2024/04/05 03:44:51;;;;;;;6.18;2.05;;;;;;;11.65;51.88;100719.44;5002688;28;20037;-78
2024/04/05 03:47:17;;;;;;;6.95;2.30;;;;;;;11.64;51.93;100717.72;5011136;28;20043;-78
2024/04/05 03:49:43;;;;;;;4.28;1.73;;;;;;;11.64;52.27;100718.56;5020165;28;20045;-77
2024/04/05 03:52:10;;;;;;;3.60;1.90;;;;;;;11.64;52.04;100732.28;5004766;28;20041;-77
2024/04/05 03:54:36;;;;;;;5.28;1.80;;;;;;;11.65;52.55;100730.41;5016675;28;20045;-78
2024/04/05 03:57:03;;;;;;;5.40;1.98;;;;;;;11.65;52.31;100725.78;5024234;28;20042;-77
2024/04/05 03:59:32;;;;;;;4.53;2.00;;;;;;;11.67;52.47;100720.16;5013673;28;20095;-77
2024/04/05 04:01:58;;;;;;;7.35;2.05;;;;;;;11.65;52.24;100725.78;5004521;28;20045;-78
2024/04/05 04:04:25;;;;;;;6.45;2.17;;;;;;;11.66;52.58;100723.91;5015304;28;20079;-78
2024/04/05 04:06:51;;;;;;;4.68;1.90;;;;;;;11.66;52.80;100721.19;5011935;28;20038;-78
2024/04/05 04:09:18;;;;;;;5.53;1.92;;;;;;;11.67;52.45;100720.16;5015046;28;20037;-77
2024/04/05 04:11:44;;;;;;;5.72;2.28;;;;;;;11.67;52.92;100715.56;5002948;28;20120;-77
2024/04/05 04:14:13;;;;;;;6.57;2.45;;;;;;;11.69;52.49;100718.16;5021888;28;20044;-78
2024/04/05 04:16:41;;;;;;;6.13;2.33;;;;;;;11.70;52.51;100717.16;5011407;28;20060;-77
2024/04/05 04:19:08;;;;;;;4.75;2.20;;;;;;;11.68;52.56;100709.06;5003076;28;20044;-77
2024/04/05 04:21:35;;;;;;;5.50;2.50;;;;;;;11.69;52.38;100707.19;5020374;28;20038;-77
2024/04/05 04:24:02;;;;;;;4.50;2.13;;;;;;;11.70;52.54;100717.16;5011332;28;20378;-77
2024/04/05 04:26:28;;;;;;;6.35;2.15;;;;;;;11.70;52.77;100711.66;5019484;28;20037;-77
2024/04/05 04:28:55;;;;;;;3.97;2.00;;;;;;;11.70;52.43;100703.44;5020810;28;20061;-77
2024/04/05 04:31:22;;;;;;;4.15;1.70;;;;;;;11.71;52.57;100702.44;5016937;28;20048;-78
2024/04/05 04:33:51;;;;;;;4.32;2.05;;;;;;;11.72;52.47;100694.03;5013047;28;20037;-77
2024/04/05 04:36:18;;;;;;;4.00;2.10;;;;;;;11.70;53.05;100704.31;5007440;28;20051;-77
2024/04/05 04:38:46;;;;;;;5.13;1.75;;;;;;;11.71;53.10;100696.94;5008972;28;20124;-77
2024/04/05 04:41:12;;;;;;;3.60;1.83;;;;;;;11.70;53.12;100695.22;4998610;28;20037;-77
2024/04/05 04:43:40;;;;;;;5.35;2.20;;;;;;;11.71;52.76;100699.69;4999469;28;20041;-77
2024/04/05 04:46:06;;;;;;;6.22;2.20;;;;;;;11.70;52.67;100700.69;5021508;28;20075;-76
2024/04/05 04:48:33;;;;;;;6.00;2.30;;;;;;;11.68;52.99;100686.28;5021100;28;20061;-77
2024/04/05 04:51:00;;;;;;;5.50;2.05;;;;;;;11.69;53.18;100690.75;5019708;28;20600;-77
2024/04/05 04:53:27;;;;;;;5.47;1.95;;;;;;;11.65;52.68;100687.41;5002841;28;20111;-77
2024/04/05 04:55:53;;;;;;;5.15;2.00;;;;;;;11.64;53.08;100682.94;5014730;28;20033;-77
2024/04/05 04:58:22;;;;;;;5.05;2.33;;;;;;;11.64;53.43;100676.59;5009197;28;20086;-77
2024/04/05 05:00:49;;;;;;;5.38;1.90;;;;;;;11.63;53.23;100662.03;5026203;28;20236;-77
2024/04/05 05:03:17;;;;;;;5.40;2.22;;;;;;;11.61;53.45;100660.44;5003936;28;20032;-77
2024/04/05 05:05:43;;;;;;;6.53;2.50;;;;;;;11.61;53.26;100669.53;5011127;28;20650;-76
2024/04/05 05:08:12;;;;;;;4.85;2.40;;;;;;;11.62;53.21;100681.38;5021483;28;20053;-77
2024/04/05 05:10:38;;;;;;;6.60;2.30;;;;;;;11.59;53.58;100674.25;5014947;28;20064;-76
2024/04/05 05:13:05;;;;;;;5.15;2.10;;;;;;;11.60;53.25;100658.69;5017947;28;20100;-77
2024/04/05 05:15:32;;;;;;;5.40;2.30;;;;;;;11.59;53.77;100652.34;5016456;28;20064;-76
2024/04/05 05:17:59;;;;;;;6.85;2.33;;;;;;;11.56;54.00;100635.31;5017572;28;20057;-76
2024/04/05 05:20:26;;;;;;;5.82;2.45;;;;;;;11.56;53.74;100632.56;5008877;28;20045;-77
2024/04/05 05:22:53;;;;;;;6.32;2.92;;;;;;;11.53;53.63;100633.75;5015579;28;20037;-76
2024/04/05 05:25:21;;;;;;;5.90;2.58;;;;;;;11.54;54.39;100635.47;5004836;28;20656;-77
2024/04/05 05:27:48;;;;;;;5.10;2.08;;;;;;;11.52;54.07;100642.09;5000447;28;20029;-76
2024/04/05 05:30:14;;;;;;;4.93;2.28;;;;;;;11.51;54.17;100646.72;5017144;28;20505;-77
2024/04/05 05:32:41;;;;;;;5.30;2.20;;;;;;;11.51;53.94;100649.47;4999128;28;20037;-76
2024/04/05 05:35:07;;;;;;;4.75;1.98;;;;;;;11.50;54.56;100655.09;5022402;28;20033;-77
2024/04/05 05:37:34;;;;;;;6.25;2.30;;;;;;;11.51;53.98;100667.78;5026008;28;20473;-76
2024/04/05 05:40:00;;;;;;;4.47;2.03;;;;;;;11.49;54.62;100676.13;5008725;28;20087;-76
2024/04/05 05:42:29;;;;;;;7.88;2.20;;;;;;;11.51;55.07;100679.59;5003931;28;20041;-77
2024/04/05 05:44:55;;;;;;;5.93;2.15;;;;;;;11.51;55.10;100686.97;5022839;28;20045;-76
2024/04/05 05:47:22;;;;;;;3.63;1.85;;;;;;;11.53;55.07;100695.91;5014815;28;20041;-78
2024/04/05 05:49:49;;;;;;;7.30;2.70;;;;;;;11.54;55.03;100693.03;5029459;28;20029;-76
2024/04/05 05:52:16;;;;;;;6.00;2.10;;;;;;;11.54;55.04;100701.25;5005834;28;20057;-78
2024/04/05 05:54:42;;;;;;;7.43;2.30;;;;;;;11.57;54.94;100697.34;5017878;28;20505;-77
2024/04/05 05:57:09;;;;;;;5.28;2.20;;;;;;;11.58;55.36;100693.59;5018332;28;20033;-77
2024/04/05 05:59:37;;;;;;;7.05;2.72;;;;;;;11.60;55.10;100672.38;5015758;28;20582;-76
2024/04/05 06:02:04;;;;;;;8.05;2.33;;;;;;;11.61;55.26;100650.34;5021076;28;20045;-72
2024/04/05 06:04:30;;;;;;;5.55;2.40;;;;;;;11.62;55.10;100641.13;5014810;28;20046;-75
2024/04/05 06:06:57;;;;;;;7.30;2.60;;;;;;;11.64;55.09;100630.84;5004614;28;20045;-76
2024/04/05 06:09:24;;;;;;;4.28;2.10;;;;;;;11.66;55.52;100630.72;5012275;28;20500;-75
2024/04/05 06:11:52;;;;;;;5.63;2.22;;;;;;;11.65;55.32;100629.84;5021073;28;20448;-76
2024/04/05 06:14:18;;;;;;;5.85;2.15;;;;;;;11.67;55.51;100627.84;5017094;28;20562;-74
2024/04/05 06:16:46;;;;;;;7.35;2.33;;;;;;;11.70;55.36;100637.66;5021947;28;20037;-75
2024/04/05 06:19:12;;;;;;;5.63;1.98;;;;;;;11.71;55.62;100625.69;5015582;28;20127;-75
2024/04/05 06:21:39;;;;;;;7.00;2.60;;;;;;;11.71;56.10;100621.06;5032727;28;20048;-76
2024/04/05 06:24:05;;;;;;;5.78;2.53;;;;;;;11.75;56.50;100605.16;5020577;28;20050;-76
2024/04/05 06:26:35;;;;;;;7.40;2.40;;;;;;;11.76;56.97;100615.13;5020249;28;20060;-76
2024/04/05 06:29:01;;;;;;;6.22;2.38;;;;;;;11.82;57.14;100614.50;5020565;28;20042;-76
2024/04/05 06:31:28;;;;;;;6.28;2.13;;;;;;;11.91;57.04;100610.88;5006756;28;20045;-75
2024/04/05 06:33:56;;;;;;;5.38;2.20;;;;;;;12.00;56.47;100598.16;5019949;28;20505;-75
2024/04/05 06:36:23;;;;;;;6.50;2.30;;;;;;;12.06;56.46;100592.94;5005033;28;20068;-75
2024/04/05 06:38:49;;;;;;;6.40;1.75;;;;;;;12.15;56.50;100595.78;5016504;28;20057;-75
2024/04/05 06:41:18;;;;;;;4.53;1.95;;;;;;;12.21;56.45;100603.44;5007037;28;20053;-75
2024/04/05 06:43:44;;;;;;;4.35;1.75;;;;;;;12.28;56.41;100590.81;4998083;28;20042;-76
2024/04/05 06:46:11;;;;;;;5.78;2.05;;;;;;;12.33;56.09;100585.72;5018892;28;20037;-76
2024/04/05 06:48:38;;;;;;;5.38;1.90;;;;;;;12.38;56.32;100581.50;5015839;28;20570;-76
2024/04/05 06:51:11;;;;;;;5.80;1.88;;;;;;;12.46;56.00;100562.38;5009432;28;20064;-76
2024/04/05 06:53:38;;;;;;;5.55;2.10;;;;;;;12.43;55.88;100559.09;5005779;28;20065;-74
2024/04/05 06:56:07;;;;;;;3.58;1.65;;;;;;;12.50;56.04;100552.84;5020586;28;20091;-74
2024/04/05 06:58:33;;;;;;;4.68;2.05;;;;;;;12.55;55.53;100560.59;5021189;28;20527;-74
2024/04/05 07:01:01;;;;;;;3.28;1.50;;;;;;;12.61;55.54;100564.63;5004806;28;20045;-75
2024/04/05 07:03:27;;;;;;;3.92;1.75;;;;;;;12.63;55.86;100557.97;5006586;28;20034;-74
2024/04/05 07:06:00;;;;;;;5.00;2.15;;;;;;;12.67;55.21;100551.19;5005895;28;20030;-73
2024/04/05 07:08:29;;;;;;;4.68;1.60;;;;;;;12.68;55.22;100552.91;5011934;28;20467;-74
2024/04/05 07:10:56;;;;;;;4.13;1.70;;;;;;;12.70;55.20;100553.63;5022698;28;20038;-74
2024/04/05 07:13:23;;;;;;;6.00;1.95;;;;;;;12.72;55.47;100562.53;5027170;28;20091;-73
2024/04/05 07:15:49;;;;;;;6.22;1.80;;;;;;;12.75;55.68;100550.41;5016786;28;20099;-74
2024/04/05 07:18:16;;;;;;;4.95;1.70;;;;;;;12.76;55.05;100566.72;5019476;28;20594;-73
2024/04/05 07:20:43;;;;;;;4.75;1.63;;;;;;;12.79;55.19;100573.75;5022454;28;20049;-74
2024/04/05 07:23:09;;;;;;;4.43;1.90;;;;;;;12.81;55.40;100564.34;5012884;28;20708;-73
2024/04/05 07:25:37;;;;;;;5.53;1.73;;;;;;;12.86;55.33;100559.28;5007047;28;20088;-73
2024/04/05 07:28:04;;;;;;;4.15;2.05;;;;;;;12.87;54.80;100568.38;5007907;28;20115;-73
2024/04/05 07:30:33;;;;;;;5.15;1.95;;;;;;;12.88;54.94;100573.69;5010417;28;20034;-72
2024/04/05 07:33:00;;;;;;;3.95;1.33;;;;;;;12.91;55.05;100566.16;5019969;28;20041;-73
2024/04/05 07:35:28;;;;;;;4.82;2.00;;;;;;;12.93;55.27;100569.63;5026385;28;20062;-73
2024/04/05 07:37:55;;;;;;;4.63;1.75;;;;;;;12.94;54.87;100566.72;5004615;28;20060;-74
2024/04/05 07:40:23;;;;;;;5.38;1.90;;;;;;;12.96;54.75;100572.03;5010070;28;20050;-77
2024/04/05 07:42:51;;;;;;;4.43;1.85;;;;;;;12.97;55.08;100560.91;5015539;28;20042;-77
2024/04/05 07:45:19;;;;;;;2.70;1.40;;;;;;;12.98;54.69;100548.03;5013414;28;20041;-78
2024/04/05 07:47:47;;;;;;;7.88;2.25;;;;;;;12.97;55.23;100551.78;5005359;28;20425;-77
2024/04/05 07:50:14;;;;;;;4.50;1.63;;;;;;;12.99;54.74;100547.88;5000739;28;20091;-77
2024/04/05 07:52:42;;;;;;;3.63;1.60;;;;;;;13.03;54.59;100556.69;5014077;28;20045;-78
2024/04/05 07:55:09;;;;;;;4.00;1.55;;;;;;;13.05;55.20;100549.13;5008333;28;20516;-78
2024/04/05 07:57:36;;;;;;;4.20;1.80;;;;;;;13.07;54.91;100549.84;5016338;28;20542;-77
2024/04/05 08:02:52;;;;;;;4.25;2.22;;;;;;;13.10;54.64;100538.53;4985350;28;20057;-77
2024/04/05 08:05:19;;;;;;;5.60;1.73;;;;;;;13.11;54.78;100537.53;4977163;28;20054;-77
2024/04/05 08:07:46;;;;;;;5.40;1.58;;;;;;;13.13;55.06;100558.31;4985531;28;20505;-79
2024/04/05 08:10:12;;;;;;;5.95;1.92;;;;;;;13.15;54.95;100533.44;4988644;28;20034;-78
2024/04/05 08:12:39;;;;;;;4.43;1.48;;;;;;;13.17;54.77;100545.13;4974846;28;20055;-78
2024/04/05 08:15:07;;;;;;;5.00;1.70;;;;;;;13.19;54.38;100532.09;4977375;28;20050;-79
2024/04/05 08:17:34;;;;;;;5.30;1.65;;;;;;;13.19;54.30;100530.22;4959692;28;20049;-78
2024/04/05 08:20:02;;;;;;;4.38;1.88;;;;;;;13.22;54.22;100543.63;4967812;28;20043;-78
2024/04/05 08:22:29;;;;;;;5.32;2.17;;;;;;;13.21;54.32;100539.13;4976546;28;20078;-78
2024/04/05 08:24:57;;;;;;;4.25;1.67;;;;;;;13.24;54.56;100533.34;4976093;28;20043;-78
2024/04/05 08:27:24;;;;;;;4.00;1.60;;;;;;;13.23;54.51;100525.25;4958095;28;20051;-78
2024/04/05 08:29:51;;;;;;;4.30;1.90;;;;;;;13.23;54.47;100525.25;4959778;28;20038;-78
2024/04/05 08:32:19;;;;;;;4.88;1.85;;;;;;;13.22;54.61;100531.75;4955115;28;20078;-79
2024/04/05 08:34:45;;;;;;;4.40;1.60;;;;;;;13.21;54.55;100517.16;4955905;28;20043;-78
2024/04/05 08:37:13;;;;;;;3.80;1.75;;;;;;;13.23;53.90;100519.75;4973004;28;20053;-79
2024/04/05 08:39:39;;;;;;;3.42;1.90;;;;;;;13.21;54.20;100517.16;4971380;28;20046;-77
2024/04/05 08:42:11;;;;;;;2.95;1.40;;;;;;;13.24;54.70;100514.09;4972133;28;20047;-78
2024/04/05 08:44:39;;;;;;;4.82;1.60;;;;;;;13.21;54.09;100510.78;4976331;28;20504;-79
2024/04/05 08:47:06;;;;;;;5.13;1.83;;;;;;;13.23;54.01;100508.75;4973405;28;20047;-78
2024/04/05 08:49:33;;;;;;;4.25;1.90;;;;;;;13.22;54.58;100507.03;4960167;28;20043;-77
2024/04/05 08:52:01;;;;;;;4.95;1.98;;;;;;;13.22;54.20;100501.53;4968845;28;20098;-79
2024/04/05 08:54:28;;;;;;;5.38;1.75;;;;;;;13.24;54.38;100499.50;4967558;28;20043;-79
2024/04/05 08:56:56;;;;;;;4.90;2.10;;;;;;;13.24;54.64;100472.88;4956775;28;20039;-78
2024/04/05 08:59:23;;;;;;;5.03;2.05;;;;;;;13.23;53.98;100468.41;4969406;28;20047;-77
2024/04/05 09:01:53;;;;;;;3.55;1.70;;;;;;;13.24;54.57;100455.53;4955880;28;20506;-79
2024/04/05 09:04:19;;;;;;;3.15;1.48;;;;;;;13.25;54.72;100468.25;4968575;28;20047;-78
2024/04/05 09:06:46;;;;;;;2.65;1.52;;;;;;;13.25;54.63;100455.38;4951069;28;20066;-78
2024/04/05 09:09:24;;;;;;;3.55;1.60;;;;;;;13.30;54.93;100459.50;4955117;28;20042;-77
2024/04/05 09:12:00;;;;;;;3.70;1.48;;;;;;;13.29;54.61;100457.78;4967862;28;20098;-78
2024/04/05 09:14:26;;;;;;;4.63;1.55;;;;;;;13.29;54.37;100458.63;4968021;28;20043;-78
2024/04/05 09:16:54;;;;;;;3.60;1.70;;;;;;;13.33;54.74;100439.94;4973482;28;20130;-78
2024/04/05 09:19:22;;;;;;;3.97;1.70;;;;;;;13.34;54.57;100449.94;4974062;28;20213;-77
2024/04/05 09:21:51;;;;;;;4.80;1.75;;;;;;;13.36;54.52;100443.25;4964743;28;20133;-77
2024/04/05 09:24:17;;;;;;;3.35;1.40;;;;;;;13.39;54.77;100442.03;4971127;28;20047;-77
2024/04/05 09:26:45;;;;;;;4.22;1.77;;;;;;;13.42;54.60;100436.22;4975317;28;20047;-78
2024/04/05 09:29:13;;;;;;;3.67;1.83;;;;;;;13.45;55.08;100428.50;4960705;28;20046;-78
2024/04/05 09:31:42;;;;;;;5.22;1.63;;;;;;;13.45;54.76;100422.13;4950501;28;20146;-76
2024/04/05 09:34:09;;;;;;;3.40;1.50;;;;;;;13.51;54.79;100413.25;4958452;28;20039;-76
2024/04/05 09:36:37;;;;;;;4.75;1.67;;;;;;;13.54;54.56;100412.91;4970503;28;20054;-78
2024/04/05 09:39:06;;;;;;;3.17;1.33;;;;;;;13.59;55.01;100436.19;4963355;28;20039;-79
2024/04/05 09:41:34;;;;;;;5.05;1.73;;;;;;;13.62;54.45;100433.09;4966869;28;20093;-77
2024/04/05 09:44:03;;;;;;;3.90;1.67;;;;;;;13.67;54.71;100440.88;4972276;28;20044;-79
2024/04/05 09:46:32;;;;;;;6.05;2.30;;;;;;;13.70;54.47;100420.41;4961605;28;20482;-78
2024/04/05 09:48:58;;;;;;;5.32;1.90;;;;;;;13.72;54.26;100421.97;4958882;28;20047;-76
2024/04/05 09:51:27;;;;;;;4.72;1.73;;;;;;;13.76;54.64;100406.00;4952830;28;20042;-77
2024/04/05 09:53:54;;;;;;;4.82;1.75;;;;;;;13.76;54.11;100398.63;4962106;28;20398;-78
2024/04/05 09:56:25;;;;;;;3.22;1.48;;;;;;;13.79;54.28;100398.28;4967561;28;20054;-78
2024/04/05 09:58:53;;;;;;;4.85;1.48;;;;;;;13.82;54.20;100399.84;4965164;28;20049;-78
2024/04/05 10:01:21;;;;;;;4.07;1.48;;;;;;;13.81;54.36;100414.63;4965041;28;20417;-77
2024/04/05 10:03:48;;;;;;;3.47;1.80;;;;;;;13.84;54.54;100422.53;4951633;28;20403;-79
2024/04/05 10:06:18;;;;;;;4.47;1.73;;;;;;;13.85;54.06;100416.03;4965308;28;20612;-77
2024/04/05 10:08:44;;;;;;;4.78;1.70;;;;;;;13.85;54.09;100410.53;4963227;28;20053;-78
2024/04/05 10:11:12;;;;;;;4.40;1.90;;;;;;;13.87;54.32;100405.69;4963150;28;20069;-78
2024/04/05 10:13:38;;;;;;;4.88;1.95;;;;;;;13.87;54.67;100430.44;4968359;28;20042;-76
2024/04/05 10:16:05;;;;;;;3.30;1.33;;;;;;;13.89;54.18;100442.16;4977216;28;20064;-78
2024/04/05 10:18:34;;;;;;;3.40;1.40;;;;;;;13.91;54.54;100440.09;4976432;28;20060;-78
2024/04/05 10:21:04;;;;;;;3.67;1.50;;;;;;;13.93;54.62;100438.91;4966123;28;20074;-77
2024/04/05 10:23:32;;;;;;;4.78;1.60;;;;;;;13.94;54.12;100456.28;4957330;28;20058;-78
2024/04/05 10:26:00;;;;;;;3.05;1.45;;;;;;;13.94;54.12;100456.28;4972805;28;20098;-78
2024/04/05 10:28:26;;;;;;;3.92;1.48;;;;;;;13.95;54.20;100458.00;4966374;28;20061;-77
2024/04/05 10:30:55;;;;;;;2.95;1.30;;;;;;;13.98;53.90;100471.41;4967427;28;20049;-77
2024/04/05 10:33:22;;;;;;;4.97;1.70;;;;;;;13.98;53.99;100468.66;4966232;28;20047;-77
2024/04/05 10:35:50;;;;;;;2.47;1.40;;;;;;;14.00;53.98;100472.13;4969960;28;20376;-77
2024/04/05 10:38:17;;;;;;;3.55;1.17;;;;;;;14.02;53.60;100459.06;4966162;28;20054;-77
2024/04/05 10:40:44;;;;;;;3.35;1.50;;;;;;;14.02;53.63;100442.56;4961023;28;20047;-77
2024/04/05 10:43:12;;;;;;;3.70;1.67;;;;;;;14.06;54.03;100454.06;4959573;28;20050;-75
2024/04/05 10:45:41;;;;;;;3.20;1.50;;;;;;;14.06;53.92;100434.81;4972540;28;20051;-78
2024/04/05 10:48:09;;;;;;;3.00;1.40;;;;;;;14.08;53.76;100419.88;4961964;28;20051;-77
2024/04/05 10:50:37;;;;;;;3.65;1.40;;;;;;;14.09;54.16;100429.00;4968582;28;20038;-77
2024/04/05 10:53:04;;;;;;;3.15;1.38;;;;;;;14.09;53.86;100449.13;4964150;28;20091;-77
2024/04/05 10:55:34;;;;;;;3.30;1.65;;;;;;;14.13;54.03;100452.38;4968796;28;20042;-77
2024/04/05 10:58:03;;;;;;;3.97;1.60;;;;;;;14.15;53.85;100440.19;4959251;28;20098;-78
2024/04/05 11:00:32;;;;;;;3.47;1.50;;;;;;;14.15;54.20;100447.56;4955387;28;20042;-78
2024/04/05 11:02:58;;;;;;;3.45;1.40;;;;;;;14.16;53.90;100441.03;4967743;28;20054;-78
2024/04/05 11:05:26;;;;;;;3.35;1.58;;;;;;;14.17;53.67;100434.50;4958238;28;20403;-77
2024/04/05 11:07:59;;;;;;;2.88;1.63;;;;;;;14.22;54.18;100443.13;4970074;28;20390;-75
2024/04/05 11:10:30;;;;;;;4.53;1.77;;;;;;;14.22;54.02;100432.97;4965307;28;20102;-79
2024/04/05 11:12:58;;;;;;;4.57;1.92;;;;;;;14.22;53.54;100432.97;4955300;28;20514;-78
2024/04/05 11:15:25;;;;;;;3.03;1.48;;;;;;;14.22;53.92;100424.72;4958306;28;20038;-77
2024/04/05 11:18:03;;;;;;;4.95;1.92;;;;;;;14.25;53.65;100418.88;4974796;28;20034;-78
2024/04/05 11:20:31;;;;;;;4.68;1.60;;;;;;;14.24;53.50;100417.16;4974960;28;20046;-78
2024/04/05 11:23:04;;;;;;;3.60;1.70;;;;;;;14.27;53.34;100419.56;4975306;28;20081;-78
2024/04/05 11:25:32;;;;;;;3.90;1.60;;;;;;;14.27;53.55;100427.81;4964572;28;20042;-77
2024/04/05 11:28:10;;;;;;;3.63;1.98;;;;;;;14.31;53.65;100437.47;4955191;28;20417;-77